Time;durP1;ratioP1;P1;durP2;ratioP2;P2;SDS_P1;SDS_P2;PMS_P1;PMS_P2;Temp;Humidity;BMP_temperature;BMP_pressure;BME280_temperature;BME280_humidity;BME280_pressure;Samples;Min_cycle;Max_cycle;Signal;HPM_P1;HPM_P2
2023/06/17 00:00:28;;;;;;;;;;;23.50;46.80;;;23.55;34.57;98605.97;5026977;27;124552;-74
2023/06/17 00:02:55;;;;;;;;;;;23.40;46.90;;;23.54;34.69;98607.19;5031121;27;113499;-75
2023/06/17 00:05:24;;;;;;;;;;;23.40;47.10;;;23.54;34.86;98601.56;5030390;28;113535;-76
2023/06/17 00:07:51;;;;;;;;;;;23.30;47.20;;;23.54;34.71;98604.38;5027415;27;124137;-74
2023/06/17 00:10:17;;;;;;;;;;;23.30;47.30;;;23.54;34.74;98610.03;5029981;27;123957;-75
2023/06/17 00:12:44;;;;;;;;;;;23.30;47.40;;;23.53;34.80;98599.94;5026484;27;114082;-74
2023/06/17 00:15:10;;;;;;;;;;;23.30;47.50;;;23.52;34.93;98595.50;5028257;27;113311;-74
2023/06/17 00:17:37;;;;;;;;;;;23.30;47.60;;;23.50;34.97;98592.28;5027628;27;124243;-74
2023/06/17 00:20:12;;;;;;;;;;;23.30;47.70;;;23.49;34.83;98593.50;5027928;27;123978;-73
2023/06/17 00:22:39;;;;;;;;;;;23.20;47.70;;;23.47;34.84;98593.09;5025074;27;115646;-74
2023/06/17 00:25:08;;;;;;;;;;;23.20;47.70;;;23.45;34.93;98595.50;5042154;27;114307;-74
2023/06/17 00:27:37;;;;;;;;;;;23.20;47.80;;;23.42;35.13;98597.13;5011167;28;123250;-75
2023/06/17 00:30:04;;;;;;;;;;;23.20;47.80;;;23.40;35.27;98588.28;5003199;28;123164;-74
2023/06/17 00:32:32;;;;;;;;;;;23.20;47.90;;;23.36;35.42;98588.25;5029905;27;114005;-74
2023/06/17 00:34:59;;;;;;;;;;;23.20;48.00;;;23.35;35.24;98586.66;5016850;27;112791;-74
2023/06/17 00:37:25;;;;;;;;;;;23.20;48.10;;;23.32;35.08;98583.81;5025492;27;123503;-74
2023/06/17 00:39:53;;;;;;;;;;;23.10;48.00;;;23.26;35.26;98589.06;5027227;27;124227;-74
2023/06/17 00:42:20;;;;;;;;;;;23.10;48.00;;;23.21;35.44;98583.84;5030742;27;114694;-74
2023/06/17 00:44:46;;;;;;;;;;;23.00;48.10;;;23.17;35.39;98585.84;5030518;27;113819;-74
2023/06/17 00:47:13;;;;;;;;;;;23.00;48.20;;;23.11;35.49;98581.84;5013385;27;124671;-74
2023/06/17 00:49:41;;;;;;;;;;;23.00;48.20;;;23.09;35.77;98585.06;5027479;27;124888;-74
2023/06/17 00:52:08;;;;;;;;;;;22.90;48.40;;;23.02;36.04;98575.78;5027314;27;114560;-74
2023/06/17 00:54:39;;;;;;;;;;;22.90;48.80;;;22.86;35.93;98576.97;5013786;27;113910;-74
2023/06/17 00:57:10;;;;;;;;;;;22.70;48.70;;;22.70;36.22;98582.97;5018103;27;124273;-75
2023/06/17 00:59:38;;;;;;;;;;;22.60;48.90;;;22.63;36.52;98584.97;5012235;27;123574;-75
2023/06/17 01:02:09;;;;;;;;;;;22.50;48.80;;;22.57;36.20;98576.09;5023530;27;114485;-74
2023/06/17 01:04:37;;;;;;;;;;;22.50;49.00;;;22.54;36.34;98581.69;5013529;27;113798;-74
2023/06/17 01:07:23;;;;;;;;;;;22.40;49.00;;;22.55;36.58;98583.34;5012138;27;125001;-75
2023/06/17 01:09:59;;;;;;;;;;;22.40;49.10;;;22.57;36.63;98575.28;5020780;27;124003;-74
2023/06/17 01:12:28;;;;;;;;;;;22.40;49.30;;;22.59;36.62;98584.13;5006080;27;113736;-74
2023/06/17 01:14:57;;;;;;;;;;;22.40;49.30;;;22.61;36.52;98576.09;5026929;27;114704;-74
2023/06/17 01:17:25;;;;;;;;;;;22.40;49.50;;;22.62;36.73;98577.69;5026799;27;124332;-75
2023/06/17 01:19:53;;;;;;;;;;;22.40;49.50;;;22.62;36.61;98586.97;5019607;27;124125;-74
2023/06/17 01:22:23;;;;;;;;;;;22.40;49.50;;;22.62;36.52;98583.34;5026864;28;114732;-74
2023/06/17 01:24:51;;;;;;;;;;;22.40;49.50;;;22.59;36.83;98579.31;5026488;27;113629;-73
2023/06/17 01:27:23;;;;;;;;;;;22.30;49.40;;;22.59;36.71;98584.13;5022711;27;124344;-73
2023/06/17 01:29:49;;;;;;;;;;;22.30;49.50;;;22.55;36.78;98580.53;5013914;27;124636;-74
2023/06/17 01:32:15;;;;;;;;;;;22.30;49.50;;;22.50;36.65;98579.69;5026202;27;114411;-75
2023/06/17 01:34:59;;;;;;;;;;;22.30;49.50;;;22.44;37.07;98578.47;5025620;27;112483;-74
2023/06/17 01:37:29;;;;;;;;;;;22.30;49.70;;;22.39;37.27;98584.47;5022394;27;123920;-75
2023/06/17 01:39:57;;;;;;;;;;;22.20;49.70;;;22.36;37.29;98581.66;5034583;27;124488;-75
2023/06/17 01:42:31;;;;;;;;;;;22.20;49.80;;;22.36;37.07;98579.66;5043985;27;114316;-75
2023/06/17 01:44:59;;;;;;;;;;;22.20;49.90;;;22.37;37.00;98586.09;5029501;27;114250;-76
2023/06/17 01:47:26;;;;;;;;;;;22.20;50.00;;;22.36;37.15;98581.66;5027159;27;124363;-75
2023/06/17 01:49:57;;;;;;;;;;;22.10;50.00;;;22.35;37.36;98580.03;5026091;27;124028;-75
2023/06/17 01:52:23;;;;;;;;;;;22.10;50.00;;;22.27;37.36;98588.47;5028920;27;113510;-75
2023/06/17 01:54:49;;;;;;;;;;;22.10;50.40;;;22.19;37.69;98583.19;5026874;27;113863;-76
2023/06/17 01:57:15;;;;;;;;;;;22.00;50.60;;;22.04;37.93;98591.53;5027560;27;124683;-75
2023/06/17 01:59:42;;;;;;;;;;;21.90;51.10;;;21.89;38.39;98586.25;5024087;27;123977;-76
2023/06/17 02:02:09;;;;;;;;;;;21.80;51.40;;;21.79;38.70;98576.56;5026027;27;116232;-76
2023/06/17 02:04:35;;;;;;;;;;;21.70;51.70;;;21.70;38.85;98590.16;5025765;27;114988;-76
2023/06/17 02:07:02;;;;;;;;;;;21.60;51.70;;;21.65;38.99;98587.72;5026543;27;124990;-75
2023/06/17 02:09:28;;;;;;;;;;;21.60;51.60;;;21.65;39.20;98587.72;5041467;27;123854;-74
2023/06/17 02:11:55;;;;;;;;;;;21.50;51.60;;;21.68;38.92;98584.09;5012622;28;113826;-76
2023/06/17 02:14:21;;;;;;;;;;;21.50;51.70;;;21.71;38.75;98580.50;5042675;27;113507;-76
2023/06/17 02:16:48;;;;;;;;;;;21.50;51.60;;;21.75;38.86;98581.34;5035647;27;124285;-76
2023/06/17 02:19:15;;;;;;;;;;;21.50;51.60;;;21.77;38.60;98576.16;5025759;27;124509;-76
2023/06/17 02:21:42;;;;;;;;;;;21.50;51.60;;;21.78;38.66;98580.56;5032459;27;114337;-76
2023/06/17 02:24:12;;;;;;;;;;;21.50;51.60;;;21.79;38.71;98577.38;5027545;27;113895;-75
2023/06/17 02:26:40;;;;;;;;;;;21.50;51.60;;;21.80;38.63;98569.72;5018571;27;124173;-76
2023/06/17 02:29:07;;;;;;;;;;;21.50;51.60;;;21.80;38.65;98573.34;5010421;27;123192;-76
2023/06/17 02:31:35;;;;;;;;;;;21.50;51.70;;;21.82;38.52;98575.78;5002650;28;113611;-74
2023/06/17 02:34:02;;;;;;;;;;;21.50;51.60;;;21.83;38.54;98577.38;5027124;27;113736;-74
2023/06/17 02:36:31;;;;;;;;;;;21.50;51.70;;;21.82;38.52;98567.34;5026004;28;124157;-74
2023/06/17 02:38:58;;;;;;;;;;;21.50;51.60;;;21.78;38.41;98569.31;5013686;27;124424;-74
2023/06/17 02:41:26;;;;;;;;;;;21.50;51.40;;;21.76;38.59;98566.06;5027065;28;114793;-73
2023/06/17 02:43:52;;;;;;;;;;;21.50;51.50;;;21.72;38.68;98565.25;5028365;27;113289;-74
2023/06/17 02:46:19;;;;;;;;;;;21.50;51.70;;;21.70;38.64;98559.22;5023813;27;124120;-74
2023/06/17 02:48:45;;;;;;;;;;;21.50;51.80;;;21.70;38.96;98562.03;5001725;28;122921;-75
2023/06/17 02:51:11;;;;;;;;;;;21.40;51.80;;;21.71;38.71;98555.19;5022338;27;115222;-74
2023/06/17 02:53:38;;;;;;;;;;;21.40;51.90;;;21.72;38.88;98566.06;5014510;28;113853;-74
2023/06/17 02:56:06;;;;;;;;;;;21.40;52.00;;;21.69;39.04;98566.84;5029692;27;124290;-75
2023/06/17 02:58:32;;;;;;;;;;;21.40;52.10;;;21.67;38.82;98568.44;5031900;27;123592;-75
2023/06/17 03:00:59;;;;;;;;;;;21.40;52.10;;;21.62;39.18;98567.59;5023854;27;114370;-73
2023/06/17 03:03:34;;;;;;;;;;;21.40;52.20;;;21.55;39.11;98559.13;5020884;27;114574;-74
2023/06/17 03:06:07;;;;;;;;;;;21.40;52.50;;;21.49;39.55;98563.50;5016731;27;124387;-74
2023/06/17 03:08:37;;;;;;;;;;;21.30;52.60;;;21.42;39.81;98562.66;5029417;27;123983;-74
2023/06/17 03:11:04;;;;;;;;;;;21.20;52.80;;;21.35;39.59;98569.00;5019671;27;114663;-74
2023/06/17 03:13:30;;;;;;;;;;;21.20;52.90;;;21.25;39.97;98559.31;5029656;27;114136;-75
2023/06/17 03:15:58;;;;;;;;;;;21.10;53.20;;;21.17;40.23;98564.06;5031817;27;123154;-75
2023/06/17 03:18:25;;;;;;;;;;;21.00;53.30;;;21.12;40.31;98566.44;5016458;27;124231;-74
2023/06/17 03:20:53;;;;;;;;;;;21.00;53.60;;;21.05;40.94;98564.34;5008999;28;115640;-74
2023/06/17 03:23:22;;;;;;;;;;;20.90;53.80;;;20.93;40.95;98573.09;5031033;27;113858;-74
2023/06/17 03:25:49;;;;;;;;;;;20.90;54.00;;;20.83;41.19;98574.59;5031519;28;124232;-76
2023/06/17 03:28:16;;;;;;;;;;;20.70;54.50;;;20.71;41.23;98575.69;5029730;27;124116;-77
2023/06/17 03:30:42;;;;;;;;;;;20.60;54.40;;;20.63;41.50;98574.00;5031720;27;112773;-76
2023/06/17 03:33:09;;;;;;;;;;;20.60;54.50;;;20.57;41.60;98575.53;5030464;27;113698;-76
2023/06/17 03:35:35;;;;;;;;;;;20.50;54.70;;;20.53;41.42;98585.91;5016865;27;125270;-75
2023/06/17 03:38:02;;;;;;;;;;;20.50;54.60;;;20.51;41.75;98579.84;5029893;27;123902;-77
2023/06/17 03:40:28;;;;;;;;;;;20.40;54.70;;;20.45;41.79;98579.41;5025643;27;115482;-74
2023/06/17 03:42:54;;;;;;;;;;;20.40;55.10;;;20.44;41.79;98580.56;5028416;27;114726;-78
2023/06/17 03:45:21;;;;;;;;;;;20.30;54.90;;;20.43;42.04;98581.78;5032236;27;124813;-77
2023/06/17 03:47:47;;;;;;;;;;;20.30;55.10;;;20.46;41.84;98585.81;5021040;27;123861;-74
2023/06/17 03:50:14;;;;;;;;;;;20.30;55.00;;;20.51;41.83;98582.66;5021708;28;114217;-74
2023/06/17 03:52:40;;;;;;;;;;;20.30;55.00;;;20.58;41.39;98594.00;5028224;27;114117;-75
2023/06/17 03:55:07;;;;;;;;;;;20.30;55.00;;;20.65;41.19;98596.88;5020993;27;124152;-75
2023/06/17 03:57:33;;;;;;;;;;;20.40;55.10;;;20.67;41.62;98591.69;5022172;27;122926;-75
2023/06/17 03:59:59;;;;;;;;;;;20.40;55.10;;;20.73;41.43;98589.34;5024653;27;114361;-74
2023/06/17 04:02:26;;;;;;;;;;;20.40;55.10;;;20.80;41.46;98595.03;5025881;27;113635;-74
2023/06/17 04:04:52;;;;;;;;;;;20.40;55.10;;;20.85;41.31;98586.25;5024886;27;124640;-74
2023/06/17 04:07:22;;;;;;;;;;;20.50;55.10;;;20.89;41.07;98592.69;5042520;27;124524;-74
2023/06/17 04:09:48;;;;;;;;;;;20.50;55.10;;;20.92;41.02;98583.50;5006058;27;113362;-75
2023/06/17 04:12:16;;;;;;;;;;;20.50;55.00;;;20.95;40.86;98590.34;5030191;27;113837;-75
2023/06/17 04:14:43;;;;;;;;;;;20.60;55.00;;;20.99;40.77;98596.00;5029052;27;124837;-74
2023/06/17 04:17:09;;;;;;;;;;;20.60;54.80;;;21.01;40.34;98593.59;5030932;27;122884;-74
2023/06/17 04:19:37;;;;;;;;;;;20.60;54.70;;;21.02;40.44;98584.81;5018870;27;114331;-74
2023/06/17 04:22:05;;;;;;;;;;;20.60;54.60;;;21.05;40.66;98594.47;5027597;27;113599;-74
2023/06/17 04:24:31;;;;;;;;;;;20.70;54.60;;;21.07;40.59;98598.50;5027805;27;124321;-76
2023/06/17 04:26:58;;;;;;;;;;;20.70;54.40;;;21.10;40.61;98603.34;5027663;27;124043;-75
2023/06/17 04:29:29;;;;;;;;;;;20.80;54.40;;;21.12;40.55;98594.53;5028418;27;115376;-74
2023/06/17 04:31:56;;;;;;;;;;;20.70;54.20;;;21.14;40.49;98592.94;5031081;28;113766;-74
2023/06/17 04:34:23;;;;;;;;;;;20.80;54.20;;;21.15;40.31;98588.94;5030419;27;123893;-74
2023/06/17 04:36:56;;;;;;;;;;;20.80;54.20;;;21.18;40.28;98590.16;5028483;27;123904;-74
2023/06/17 04:39:26;;;;;;;;;;;20.80;54.10;;;21.19;40.12;98589.75;5034717;27;114786;-74
2023/06/17 04:41:53;;;;;;;;;;;20.80;54.00;;;21.21;40.11;98591.38;5036123;27;113712;-74
2023/06/17 04:44:19;;;;;;;;;;;20.90;54.00;;;21.23;40.21;98584.19;5029468;27;126140;-74
2023/06/17 04:46:46;;;;;;;;;;;20.80;53.90;;;21.26;39.95;98591.03;5024657;27;123682;-74
2023/06/17 04:49:12;;;;;;;;;;;20.90;53.90;;;21.28;39.77;98585.81;5020583;27;114528;-75
2023/06/17 04:51:40;;;;;;;;;;;20.90;53.80;;;21.26;40.01;98583.41;5019392;27;114119;-75
2023/06/17 04:54:06;;;;;;;;;;;20.90;53.80;;;21.23;39.70;98584.19;5007069;27;123778;-75
2023/06/17 04:56:33;;;;;;;;;;;20.90;53.70;;;21.23;39.62;98583.38;5033265;27;123933;-74
2023/06/17 04:58:59;;;;;;;;;;;20.90;53.60;;;21.23;39.65;98589.78;5016281;27;114210;-76
2023/06/17 05:01:25;;;;;;;;;;;20.90;53.60;;;21.26;39.63;98582.59;5015218;27;112669;-74
2023/06/17 05:03:54;;;;;;;;;;;20.90;53.60;;;21.28;39.79;98580.19;5013027;27;122804;-75
2023/06/17 05:06:20;;;;;;;;;;;20.90;53.70;;;21.31;39.94;98590.66;5044303;27;124006;-73
2023/06/17 05:08:47;;;;;;;;;;;20.90;53.60;;;21.34;39.45;98584.25;5022872;27;114437;-74
2023/06/17 05:11:13;;;;;;;;;;;20.90;53.60;;;21.35;39.69;98589.47;5017423;27;113767;-75
2023/06/17 05:13:41;;;;;;;;;;;21.00;53.60;;;21.36;39.62;98598.75;5015914;27;124398;-74
2023/06/17 05:16:08;;;;;;;;;;;21.00;54.20;;;21.37;39.62;98586.28;5027921;27;123851;-75
2023/06/17 05:18:34;;;;;;;;;;;21.00;53.60;;;21.39;39.57;98586.75;5012996;27;115488;-75
2023/06/17 05:21:03;;;;;;;;;;;21.00;53.60;;;21.42;39.40;98588.78;5015929;27;114585;-76
2023/06/17 05:23:29;;;;;;;;;;;21.00;53.50;;;21.43;39.64;98592.38;5014559;27;124241;-75
2023/06/17 05:25:55;;;;;;;;;;;21.00;53.60;;;21.35;39.66;98592.28;5032132;27;122741;-75
2023/06/17 05:28:21;;;;;;;;;;;21.00;53.50;;;21.28;39.42;98591.41;5019308;27;114886;-76
2023/06/17 05:30:48;;;;;;;;;;;21.00;53.40;;;21.29;39.92;98590.25;5024117;27;113010;-75
2023/06/17 05:33:16;;;;;;;;;;;21.00;53.50;;;21.31;39.66;98599.09;5022120;27;124749;-75
2023/06/17 05:35:42;;;;;;;;;;;21.00;53.60;;;21.30;39.54;98601.06;5025458;27;124128;-75
2023/06/17 05:38:09;;;;;;;;;;;21.00;53.60;;;21.31;39.86;98599.91;5012587;28;113593;-75
2023/06/17 05:40:37;;;;;;;;;;;21.00;53.70;;;21.33;40.22;98596.69;5019762;27;113753;-76
2023/06/17 05:43:06;;;;;;;;;;;21.00;53.80;;;21.35;40.33;98591.47;5016816;27;124241;-75
2023/06/17 05:45:32;;;;;;;;;;;21.00;54.00;;;21.40;39.94;98594.75;5026704;27;124201;-75
2023/06/17 05:47:59;;;;;;;;;;;21.00;54.20;;;21.44;39.91;98600.44;5022493;27;114453;-75
2023/06/17 05:50:25;;;;;;;;;;;21.00;54.10;;;21.45;39.93;98601.25;5016476;28;113727;-75
2023/06/17 05:52:51;;;;;;;;;;;21.10;54.20;;;21.46;40.00;98602.84;5003637;28;123207;-75
2023/06/17 05:55:17;;;;;;;;;;;21.10;54.20;;;21.49;40.06;98607.69;5004213;27;123864;-77
2023/06/17 05:57:44;;;;;;;;;;;21.10;54.50;;;21.50;40.46;98609.31;5023274;27;114348;-75
2023/06/17 06:00:12;;;;;;;;;;;21.10;54.40;;;21.53;40.34;98603.69;5020785;27;113656;-75
2023/06/17 06:02:38;;;;;;;;;;;21.20;54.50;;;21.57;40.26;98596.13;5029640;27;124886;-75
2023/06/17 06:05:07;;;;;;;;;;;21.20;54.50;;;21.66;40.04;98601.38;5021559;27;124186;-75
2023/06/17 06:07:33;;;;;;;;;;;21.20;54.30;;;21.73;39.66;98601.41;5038241;27;114955;-76
2023/06/17 06:09:59;;;;;;;;;;;21.30;55.00;;;21.81;39.93;98605.06;5016671;27;114789;-75
2023/06/17 06:12:26;;;;;;;;;;;21.30;54.20;;;21.83;39.51;98597.88;5024282;27;124121;-75
2023/06/17 06:14:54;;;;;;;;;;;21.40;54.30;;;21.86;39.88;98601.09;5024924;27;124336;-76
2023/06/17 06:17:20;;;;;;;;;;;21.40;54.20;;;21.88;39.41;98599.50;5025850;27;114546;-75
2023/06/17 06:19:46;;;;;;;;;;;21.40;54.10;;;21.96;39.62;98603.97;5025014;27;113903;-75
2023/06/17 06:22:12;;;;;;;;;;;21.50;54.20;;;22.05;39.26;98598.78;5018307;27;124117;-75
2023/06/17 06:24:39;;;;;;;;;;;21.60;54.20;;;22.15;39.45;98597.22;5026213;28;124729;-75
2023/06/17 06:27:05;;;;;;;;;;;21.60;54.00;;;22.22;38.93;98604.94;5027078;27;114511;-76
2023/06/17 06:29:31;;;;;;;;;;;21.70;53.90;;;22.24;38.71;98596.88;5030343;28;113669;-76
2023/06/17 06:32:00;;;;;;;;;;;21.70;53.70;;;22.23;39.00;98601.72;5030641;27;124383;-75
2023/06/17 06:34:26;;;;;;;;;;;21.70;53.70;;;22.26;39.09;98600.91;5046452;27;122854;-75
2023/06/17 06:36:55;;;;;;;;;;;21.80;53.80;;;22.34;39.15;98600.97;5034916;27;114393;-75
2023/06/17 06:39:21;;;;;;;;;;;21.80;53.80;;;22.38;38.88;98605.41;5031112;28;113854;-75
2023/06/17 06:41:47;;;;;;;;;;;21.80;53.70;;;22.42;38.97;98602.59;5029145;27;124141;-75
2023/06/17 06:44:19;;;;;;;;;;;21.90;53.70;;;22.49;38.91;98605.44;5010828;28;122869;-76
2023/06/17 06:46:48;;;;;;;;;;;21.90;53.80;;;22.49;39.04;98611.06;5019670;27;114499;-76
2023/06/17 06:49:15;;;;;;;;;;;22.00;53.90;;;22.50;38.88;98605.03;5026415;27;113477;-75
2023/06/17 06:51:41;;;;;;;;;;;22.00;53.80;;;22.55;38.65;98606.66;5038646;27;124319;-75
2023/06/17 06:54:07;;;;;;;;;;;22.00;53.80;;;22.63;38.75;98607.50;5026613;27;123548;-75
2023/06/17 06:56:33;;;;;;;;;;;22.10;53.90;;;22.70;38.85;98613.94;5024272;27;115614;-76
2023/06/17 06:59:02;;;;;;;;;;;22.10;53.90;;;22.76;38.91;98610.75;5038429;27;114389;-75
2023/06/17 07:01:31;;;;;;;;;;;22.20;53.90;;;22.83;38.49;98614.38;5032352;27;124239;-75
2023/06/17 07:03:57;;;;;;;;;;;22.30;53.80;;;22.92;38.71;98609.16;5047054;27;123391;-75
2023/06/17 07:06:23;;;;;;;;;;;22.40;53.70;;;23.04;38.13;98601.56;5037425;27;114195;-75
2023/06/17 07:08:50;;;;;;;;;;;22.50;53.60;;;23.18;38.45;98614.84;5037007;27;113778;-75
2023/06/17 07:11:21;;;;;;;;;;;22.60;53.40;;;23.32;37.88;98612.03;5018706;27;124400;-75
2023/06/17 07:13:47;;;;;;;;;;;22.70;53.30;;;23.44;37.67;98599.56;5044402;27;123466;-75
2023/06/17 07:16:14;;;;;;;;;;;22.80;53.20;;;23.55;37.58;98609.59;5021746;28;113074;-74
2023/06/17 07:18:43;;;;;;;;;;;22.90;53.20;;;23.70;37.46;98612.44;5027294;27;113837;-74
2023/06/17 07:21:10;;;;;;;;;;;23.00;53.10;;;23.84;37.32;98612.41;5028906;28;124544;-74
2023/06/17 07:23:36;;;;;;;;;;;23.10;52.90;;;23.96;37.09;98611.16;5015482;27;124131;-74
2023/06/17 07:26:02;;;;;;;;;;;23.20;52.80;;;24.05;36.80;98611.56;5005005;28;113405;-74
2023/06/17 07:28:29;;;;;;;;;;;23.30;52.70;;;24.15;36.81;98607.06;5029207;27;112906;-73
2023/06/17 07:30:55;;;;;;;;;;;23.40;52.70;;;24.28;36.71;98616.72;5028731;27;124778;-73
2023/06/17 07:33:22;;;;;;;;;;;23.60;52.70;;;24.39;36.62;98613.84;5027895;27;123903;-75
2023/06/17 07:35:48;;;;;;;;;;;23.60;52.50;;;24.46;36.44;98611.03;5035189;27;114324;-74
2023/06/17 07:38:14;;;;;;;;;;;23.70;52.20;;;24.51;36.27;98602.13;5035511;27;113893;-74
2023/06/17 07:40:43;;;;;;;;;;;23.80;52.00;;;24.56;36.04;98610.19;5027387;27;124153;-74
2023/06/17 07:43:09;;;;;;;;;;;23.90;51.90;;;24.63;36.12;98603.66;5031734;27;122075;-74
2023/06/17 07:45:36;;;;;;;;;;;23.90;51.70;;;24.70;35.69;98600.81;5027518;27;115496;-74
2023/06/17 07:48:04;;;;;;;;;;;24.00;51.50;;;24.74;35.67;98604.41;5013619;27;114729;-74
2023/06/17 07:50:30;;;;;;;;;;;24.00;51.30;;;24.78;35.67;98595.94;5023563;27;124437;-74
2023/06/17 07:52:57;;;;;;;;;;;24.10;51.20;;;24.82;35.82;98596.69;5041188;27;123791;-74
2023/06/17 07:55:23;;;;;;;;;;;24.10;51.30;;;24.87;35.41;98593.44;5027542;27;114520;-74
2023/06/17 07:57:49;;;;;;;;;;;24.20;51.10;;;24.88;35.31;98601.50;5029782;27;113598;-75
2023/06/17 08:00:18;;;;;;;;;;;24.20;50.90;;;24.89;35.20;98588.97;5031977;27;124256;-74
2023/06/17 08:02:44;;;;;;;;;;;24.20;51.00;;;24.97;35.70;98591.75;5031019;27;123550;-74
2023/06/17 08:05:11;;;;;;;;;;;24.30;51.00;;;25.04;35.28;98603.81;5031714;28;114521;-74
2023/06/17 08:07:37;;;;;;;;;;;24.40;51.00;;;25.13;35.14;98592.03;5029656;27;113764;-74
2023/06/17 08:10:04;;;;;;;;;;;24.50;50.90;;;25.22;35.07;98594.41;5024929;27;124073;-75
2023/06/17 08:12:31;;;;;;;;;;;24.60;50.70;;;25.29;35.00;98583.06;5030793;27;123303;-74
2023/06/17 08:14:57;;;;;;;;;;;24.70;50.50;;;25.37;34.51;98590.25;5028741;27;115121;-74
2023/06/17 08:17:23;;;;;;;;;;;24.70;50.20;;;25.40;34.57;98580.94;5028521;27;113902;-75
2023/06/17 08:19:50;;;;;;;;;;;24.80;50.00;;;25.45;34.18;98583.31;5029112;27;123982;-74
2023/06/17 08:22:16;;;;;;;;;;;24.90;49.90;;;25.50;34.69;98588.53;5028176;27;124630;-74
2023/06/17 08:24:43;;;;;;;;;;;24.90;49.80;;;25.56;34.12;98577.56;5030820;27;113535;-74
2023/06/17 08:27:09;;;;;;;;;;;25.00;49.30;;;25.57;33.83;98574.28;5028245;27;113964;-74
2023/06/17 08:29:36;;;;;;;;;;;25.00;49.10;;;25.62;33.97;98575.06;5024183;27;124297;-74
2023/06/17 08:32:02;;;;;;;;;;;25.00;49.10;;;25.68;33.82;98576.22;5014099;27;124429;-74
2023/06/17 08:34:30;;;;;;;;;;;25.10;49.10;;;25.73;33.68;98578.59;5035707;27;115612;-75
2023/06/17 08:36:57;;;;;;;;;;;25.10;48.80;;;25.75;33.28;98567.66;5025757;27;114124;-74
2023/06/17 08:39:23;;;;;;;;;;;25.20;48.60;;;25.76;33.03;98572.09;5010678;28;123728;-75
2023/06/17 08:41:49;;;;;;;;;;;25.20;48.90;;;25.79;32.83;98562.75;5036260;27;124331;-74
2023/06/17 08:44:16;;;;;;;;;;;25.20;48.00;;;25.83;32.98;98559.91;5012901;27;114613;-74
2023/06/17 08:46:44;;;;;;;;;;;25.20;47.80;;;25.88;32.44;98565.94;5020162;27;113734;-74
2023/06/17 08:49:11;;;;;;;;;;;25.30;47.50;;;25.93;32.09;98565.47;5012155;27;124084;-74
2023/06/17 08:51:38;;;;;;;;;;;25.40;47.20;;;25.99;32.25;98569.44;5012554;28;124609;-74
2023/06/17 08:54:05;;;;;;;;;;;25.40;46.70;;;26.05;31.26;98560.47;5017388;27;114638;-74
2023/06/17 08:56:32;;;;;;;;;;;25.50;46.10;;;26.12;31.46;98557.56;5030012;27;113943;-75
2023/06/17 08:59:01;;;;;;;;;;;25.60;46.20;;;26.23;31.20;98553.38;5019333;27;125568;-75
2023/06/17 09:01:27;;;;;;;;;;;25.70;46.10;;;26.32;31.01;98555.69;5017255;27;123998;-74
2023/06/17 09:03:54;;;;;;;;;;;25.70;45.60;;;26.36;31.01;98556.44;5021803;27;114349;-75
2023/06/17 09:06:25;;;;;;;;;;;25.80;45.00;;;26.41;30.61;98555.97;5023092;27;113659;-74
2023/06/17 09:08:53;;;;;;;;;;;25.90;45.20;;;26.47;30.46;98547.81;5023975;27;124127;-75
2023/06/17 09:11:27;;;;;;;;;;;25.90;44.40;;;26.53;29.85;98551.00;5020217;27;123890;-74
2023/06/17 09:13:56;;;;;;;;;;;26.00;43.90;;;26.56;29.03;98550.13;5026154;28;114789;-75
2023/06/17 09:16:31;;;;;;;;;;;26.00;43.30;;;26.63;29.74;98547.22;5005687;27;113137;-78
2023/06/17 09:18:59;;;;;;;;;;;26.10;43.70;;;26.72;29.72;98538.97;5008666;27;124607;-81
2023/06/17 09:21:26;;;;;;;;;;;26.20;43.70;;;26.81;29.32;98547.75;5036644;27;123209;-82
2023/06/17 09:23:53;;;;;;;;;;;26.20;43.10;;;26.88;28.97;98535.47;5030049;27;115567;-79
2023/06/17 09:26:22;;;;;;;;;;;26.30;43.10;;;26.97;28.99;98537.75;5033136;27;114691;-81
2023/06/17 09:28:53;;;;;;;;;;;26.30;43.00;;;26.97;28.84;98543.44;5019966;27;123942;-80
2023/06/17 09:31:19;;;;;;;;;;;26.40;42.30;;;26.99;28.90;98535.31;5016757;27;122071;-80
2023/06/17 09:33:46;;;;;;;;;;;26.50;42.60;;;27.02;28.59;98537.28;5017998;27;114722;-81
2023/06/17 09:36:13;;;;;;;;;;;26.50;42.50;;;27.03;28.20;98545.38;5039613;27;113718;-80
2023/06/17 09:38:39;;;;;;;;;;;26.50;42.00;;;27.00;27.57;98528.41;5031859;27;124266;-80
2023/06/17 09:41:06;;;;;;;;;;;26.60;40.90;;;26.98;28.01;98533.72;5028535;27;123637;-80
2023/06/17 09:43:33;;;;;;;;;;;26.60;40.80;;;27.03;27.73;98534.03;5014274;28;114605;-81
2023/06/17 09:46:06;;;;;;;;;;;26.60;40.90;;;27.07;26.91;98531.91;5009966;27;112649;-82
2023/06/17 09:48:34;;;;;;;;;;;26.70;40.20;;;27.12;26.04;98539.16;5011370;27;124393;-82
2023/06/17 09:51:02;;;;;;;;;;;26.70;38.50;;;27.14;25.66;98530.22;5017722;27;124092;-80
2023/06/17 09:53:30;;;;;;;;;;;26.70;38.20;;;27.14;25.31;98539.53;5008829;28;113656;-80
2023/06/17 09:55:59;;;;;;;;;;;26.70;37.20;;;27.18;25.63;98526.09;5004193;27;113187;-80
2023/06/17 09:58:32;;;;;;;;;;;26.80;37.50;;;27.24;25.29;98532.91;5016864;28;124255;-81
2023/06/17 10:01:06;;;;;;;;;;;26.80;37.10;;;27.30;25.08;98521.84;5020840;27;123006;-81
2023/06/17 10:03:33;;;;;;;;;;;26.90;36.90;;;27.30;24.69;98522.66;5012566;28;114625;-80
2023/06/17 10:06:07;;;;;;;;;;;26.90;36.50;;;27.29;24.81;98526.69;5028788;27;113747;-80
2023/06/17 10:08:40;;;;;;;;;;;26.80;36.20;;;27.28;25.19;98516.59;5015629;27;125094;-81
2023/06/17 10:11:06;;;;;;;;;;;26.90;36.60;;;27.30;25.26;98516.97;5016247;28;123865;-80
2023/06/17 10:13:38;;;;;;;;;;;26.90;36.80;;;27.30;24.97;98516.97;5018303;27;114984;-81
2023/06/17 10:16:08;;;;;;;;;;;26.90;36.60;;;27.30;25.04;98519.03;5012135;27;114477;-81
2023/06/17 10:18:37;;;;;;;;;;;26.90;36.70;;;27.28;24.64;98512.97;5013782;27;124385;-81
2023/06/17 10:21:03;;;;;;;;;;;26.90;36.40;;;27.31;24.89;98512.09;5022208;27;123657;-80
2023/06/17 10:23:30;;;;;;;;;;;26.90;36.60;;;27.28;24.82;98508.09;5029060;27;113982;-80
2023/06/17 10:25:57;;;;;;;;;;;27.00;36.00;;;27.28;25.06;98513.75;5023568;28;113777;-80
2023/06/17 10:28:25;;;;;;;;;;;27.00;36.20;;;27.28;24.45;98502.41;5019086;27;124699;-80
2023/06/17 10:30:54;;;;;;;;;;;26.90;36.10;;;27.29;24.92;98506.84;5022542;27;123137;-79
2023/06/17 10:33:29;;;;;;;;;;;26.90;36.20;;;27.35;25.17;98500.69;5021507;27;114654;-80
2023/06/17 10:36:10;;;;;;;;;;;27.00;36.60;;;27.40;25.28;98497.34;5033226;27;114454;-80
2023/06/17 10:38:41;;;;;;;;;;;27.10;36.70;;;27.45;24.67;98496.84;5013042;27;124204;-80
2023/06/17 10:41:07;;;;;;;;;;;27.10;36.60;;;27.45;24.75;98506.16;5007347;27;123553;-79
2023/06/17 10:43:37;;;;;;;;;;;27.10;36.80;;;27.45;23.88;98497.63;5019272;27;113381;-80
2023/06/17 10:46:03;;;;;;;;;;;27.10;35.30;;;27.42;23.67;98501.34;5021603;27;113723;-80
2023/06/17 10:48:33;;;;;;;;;;;27.00;34.90;;;27.38;23.73;98505.47;5006416;28;123658;-80
2023/06/17 10:51:08;;;;;;;;;;;27.00;34.80;;;27.30;23.97;98488.59;5013373;27;124488;-80
2023/06/17 10:53:37;;;;;;;;;;;27.00;35.10;;;27.29;24.02;98497.53;5023001;27;114616;-80
2023/06/17 10:56:05;;;;;;;;;;;26.90;35.10;;;27.31;24.36;98490.19;5020885;27;113565;-80
2023/06/17 10:58:36;;;;;;;;;;;27.00;35.20;;;27.35;24.36;98483.66;5017052;27;124423;-80
2023/06/17 11:01:04;;;;;;;;;;;27.00;35.00;;;27.41;24.29;98481.94;5020689;27;124302;-81
2023/06/17 11:03:31;;;;;;;;;;;27.10;35.20;;;27.45;24.02;98482.66;5018793;28;115605;-81
2023/06/17 11:06:05;;;;;;;;;;;27.10;34.80;;;27.46;23.85;98481.44;5017629;27;114116;-80
2023/06/17 11:08:33;;;;;;;;;;;27.10;34.90;;;27.53;23.75;98484.91;5024707;27;124585;-81
2023/06/17 11:11:09;;;;;;;;;;;27.10;35.00;;;27.62;23.62;98475.84;5005903;28;124212;-81